createdAt,value
2022-10-11T00:00:49.641Z,11.63
2022-10-11T00:03:17.966Z,16.63
2022-10-11T00:05:45.757Z,11.93
2022-10-11T00:08:18.398Z,9.82
2022-10-11T00:10:46.207Z,14.65
2022-10-11T00:13:14.055Z,9.02
2022-10-11T00:15:41.874Z,11.27
2022-10-11T00:18:09.750Z,10.00
2022-10-11T00:20:37.787Z,17.45
2022-10-11T00:23:05.526Z,8.23
2022-10-11T00:25:34.941Z,11.38
2022-10-11T00:28:03.009Z,15.52
2022-10-11T00:30:30.821Z,10.80
2022-10-11T00:32:58.870Z,8.00
2022-10-11T00:35:27.216Z,8.93
2022-10-11T00:37:57.693Z,14.63
2022-10-11T00:40:25.511Z,11.63
2022-10-11T00:42:55.053Z,15.57
2022-10-11T00:45:59.772Z,11.35
2022-10-11T00:48:32.240Z,14.80
2022-10-11T00:51:03.361Z,8.65
2022-10-11T00:53:33.495Z,9.20
2022-10-11T00:56:08.951Z,8.18
2022-10-11T00:58:39.678Z,13.68
2022-10-11T01:01:09.320Z,12.05
2022-10-11T01:03:41.717Z,6.70
2022-10-11T01:06:10.333Z,6.55
2022-10-11T01:08:39.746Z,8.50
2022-10-11T01:11:07.951Z,9.73
2022-10-11T01:13:51.543Z,10.30
2022-10-11T01:16:28.601Z,14.93
2022-10-11T01:19:12.886Z,13.68
2022-10-11T01:21:48.904Z,10.50
2022-10-11T01:24:32.328Z,5.13
2022-10-11T01:27:31.836Z,7.95
2022-10-11T01:30:17.304Z,7.43
2022-10-11T01:32:51.920Z,7.65
2022-10-11T01:35:27.645Z,8.60
2022-10-11T01:38:00.696Z,10.27
2022-10-11T01:40:35.915Z,11.27
2022-10-11T01:43:05.665Z,11.45
2022-10-11T01:45:36.819Z,10.50
2022-10-11T01:48:07.081Z,10.43
2022-10-11T01:50:40.245Z,12.07
2022-10-11T01:53:41.450Z,14.68
2022-10-11T01:56:23.102Z,7.38
2022-10-11T01:59:12.833Z,16.67
2022-10-11T02:01:53.270Z,13.20
2022-10-11T02:04:29.984Z,8.27
2022-10-11T02:07:00.511Z,8.60
2022-10-11T02:09:35.180Z,8.52
2022-10-11T02:12:07.583Z,12.18
2022-10-11T02:14:39.996Z,7.90
2022-10-11T02:17:13.993Z,6.53
2022-10-11T02:19:45.685Z,7.05
2022-10-11T02:22:18.597Z,6.63
2022-10-11T02:24:49.560Z,9.00
2022-10-11T02:27:22.769Z,7.35
2022-10-11T02:29:54.676Z,8.90
2022-10-11T02:32:26.601Z,11.32
2022-10-11T02:34:56.712Z,7.57
2022-10-11T02:37:31.546Z,14.90
2022-10-11T02:40:06.459Z,11.38
2022-10-11T02:42:40.013Z,11.27
2022-10-11T02:45:14.342Z,7.00
2022-10-11T02:47:44.805Z,20.58
2022-10-11T02:50:13.627Z,7.25
2022-10-11T02:52:41.705Z,8.50
2022-10-11T02:55:10.820Z,15.80
2022-10-11T02:57:39.579Z,11.90
2022-10-11T03:00:09.071Z,10.68
2022-10-11T03:02:36.975Z,15.38
2022-10-11T03:05:07.554Z,10.07
2022-10-11T03:07:35.327Z,12.50
2022-10-11T03:10:03.202Z,6.40
2022-10-11T03:12:31.018Z,12.50
2022-10-11T03:14:58.855Z,11.98
2022-10-11T03:17:41.782Z,9.38
2022-10-11T03:20:12.151Z,11.30
2022-10-11T03:22:40.837Z,9.88
2022-10-11T03:25:09.334Z,12.13
2022-10-11T03:27:37.123Z,9.35
2022-10-11T03:30:06.500Z,8.32
2022-10-11T03:32:34.238Z,8.73
2022-10-11T03:35:03.280Z,12.65
2022-10-11T03:37:32.465Z,12.85
2022-10-11T03:40:01.365Z,13.90
2022-10-11T03:42:29.386Z,17.88
2022-10-11T03:44:57.207Z,5.70
2022-10-11T03:47:25.003Z,9.32
2022-10-11T03:49:52.973Z,19.60
2022-10-11T03:52:20.747Z,10.75
2022-10-11T03:54:49.979Z,10.30
2022-10-11T03:57:17.701Z,10.77
2022-10-11T03:59:46.969Z,11.20
2022-10-11T04:02:14.968Z,10.02
2022-10-11T04:04:42.798Z,9.63
2022-10-11T04:07:10.777Z,8.85
2022-10-11T04:09:38.650Z,6.82
2022-10-11T04:12:08.407Z,12.57
2022-10-11T04:14:36.231Z,11.50
2022-10-11T04:17:04.082Z,8.68
2022-10-11T04:19:31.812Z,12.73
2022-10-11T04:21:59.630Z,9.30
2022-10-11T04:24:27.472Z,7.22
2022-10-11T04:26:55.360Z,15.93
2022-10-11T04:29:27.726Z,13.02
2022-10-11T04:31:59.374Z,10.85
2022-10-11T04:34:27.161Z,13.77
2022-10-11T04:36:55.074Z,11.25
2022-10-11T04:39:22.870Z,9.13
2022-10-11T04:41:50.750Z,8.65
2022-10-11T04:44:18.566Z,14.70
2022-10-11T04:46:47.840Z,9.32
2022-10-11T04:49:15.643Z,14.18
2022-10-11T04:51:43.446Z,9.07
2022-10-11T04:54:11.295Z,17.15
2022-10-11T04:56:39.027Z,10.15
2022-10-11T04:59:06.980Z,11.88
2022-10-11T05:01:34.936Z,14.27
2022-10-11T05:04:04.771Z,13.52
2022-10-11T05:06:32.820Z,10.18
2022-10-11T05:09:01.238Z,9.65
2022-10-11T05:11:29.337Z,9.45
2022-10-11T05:13:57.513Z,8.38
2022-10-11T05:16:25.371Z,7.38
2022-10-11T05:18:53.249Z,10.75
2022-10-11T05:21:24.828Z,8.50
2022-10-11T05:23:55.751Z,9.93
2022-10-11T05:26:24.026Z,12.38
2022-10-11T05:28:52.377Z,7.10
2022-10-11T05:31:20.487Z,12.40
2022-10-11T05:33:48.635Z,9.48
2022-10-11T05:36:16.721Z,8.20
2022-10-11T05:38:46.047Z,6.93
2022-10-11T05:41:15.936Z,13.25
2022-10-11T05:43:46.323Z,13.13
2022-10-11T05:46:14.301Z,13.55
2022-10-11T05:48:42.106Z,25.92
2022-10-11T05:51:10.904Z,84.05
2022-10-11T05:53:39.419Z,103.35
2022-10-11T05:56:19.036Z,93.50
2022-10-11T05:58:47.002Z,30.25
2022-10-11T06:01:19.811Z,32.80
2022-10-11T06:03:47.802Z,60.28
2022-10-11T06:06:15.712Z,22.98
2022-10-11T06:08:44.301Z,19.42
2022-10-11T06:11:16.463Z,17.95
2022-10-11T06:13:44.868Z,12.27
2022-10-11T06:16:13.465Z,9.65
2022-10-11T06:18:41.589Z,17.17
2022-10-11T06:21:09.407Z,11.95
2022-10-11T06:23:37.237Z,7.25
2022-10-11T06:26:08.543Z,13.00
2022-10-11T06:31:07.806Z,14.85
2022-10-11T06:33:37.744Z,14.18
2022-10-11T06:36:08.391Z,9.57
2022-10-11T06:38:41.003Z,12.77
2022-10-11T06:41:13.743Z,9.32
2022-10-11T06:43:43.174Z,17.75
2022-10-11T06:46:11.524Z,13.30
2022-10-11T06:48:40.992Z,17.98
2022-10-11T06:51:08.860Z,11.20
2022-10-11T06:56:30.803Z,6.90
2022-10-11T06:59:00.964Z,13.80
2022-10-11T07:01:28.915Z,12.43
2022-10-11T07:03:58.706Z,20.98
2022-10-11T07:06:28.837Z,16.85
2022-10-11T07:08:57.439Z,12.57
2022-10-11T07:11:27.259Z,10.07
2022-10-11T07:13:56.856Z,15.95
2022-10-11T07:16:26.599Z,11.25
2022-10-11T07:19:00.133Z,16.88
2022-10-11T07:21:29.940Z,23.58
2022-10-11T07:24:03.532Z,14.80
2022-10-11T07:26:38.151Z,9.13
2022-10-11T07:29:09.433Z,11.98
2022-10-11T07:31:41.442Z,20.23
2022-10-11T07:34:09.373Z,13.77
2022-10-11T07:36:37.631Z,14.50
2022-10-11T07:39:07.464Z,14.52
2022-10-11T07:41:35.518Z,13.93
2022-10-11T07:44:03.615Z,12.70
2022-10-11T07:46:31.817Z,16.92
2022-10-11T07:49:01.008Z,17.55
2022-10-11T07:51:28.824Z,19.70
2022-10-11T07:53:58.236Z,17.92
2022-10-11T07:56:27.835Z,14.73
2022-10-11T07:58:57.747Z,13.02
2022-10-11T08:01:26.747Z,23.42
2022-10-11T08:03:56.747Z,19.08
2022-10-11T08:06:31.566Z,18.05
2022-10-11T08:09:01.004Z,24.15
2022-10-11T08:11:31.278Z,15.27
2022-10-11T08:14:00.678Z,13.60
2022-10-11T08:16:28.543Z,21.48
2022-10-11T08:18:57.063Z,19.20
2022-10-11T08:21:26.848Z,14.30
2022-10-11T08:23:54.741Z,20.63
2022-10-11T08:26:23.128Z,18.38
2022-10-11T08:28:51.119Z,14.38
2022-10-11T08:31:18.931Z,14.38
2022-10-11T08:33:46.783Z,12.50
2022-10-11T08:36:14.617Z,21.52
2022-10-11T08:38:43.836Z,13.73
2022-10-11T08:41:38.001Z,15.35
2022-10-11T08:44:18.517Z,16.83
2022-10-11T08:46:51.717Z,18.25
2022-10-11T08:49:27.760Z,14.07
2022-10-11T08:52:02.513Z,17.45
2022-10-11T08:54:38.976Z,19.88
2022-10-11T08:57:08.071Z,14.23
2022-10-11T08:59:42.798Z,17.10
2022-10-11T09:02:22.693Z,25.02
2022-10-11T09:04:55.061Z,15.85
2022-10-11T09:07:36.633Z,21.38
2022-10-11T09:10:36.864Z,14.23
2022-10-11T09:13:18.454Z,15.65
2022-10-11T09:15:55.274Z,18.15
2022-10-11T09:18:42.707Z,16.23
2022-10-11T09:21:20.761Z,15.48
2022-10-11T09:24:07.820Z,19.55
2022-10-11T09:26:43.829Z,20.25
2022-10-11T09:29:18.725Z,20.23
2022-10-11T09:31:49.901Z,17.40
2022-10-11T09:34:17.768Z,19.65
2022-10-11T09:36:54.200Z,14.93
2022-10-11T09:39:31.177Z,19.83
2022-10-11T09:42:02.720Z,12.25
2022-10-11T09:44:33.881Z,10.10
2022-10-11T09:47:02.042Z,18.48
2022-10-11T09:49:34.961Z,9.75
2022-10-11T09:52:05.104Z,9.25
2022-10-11T09:54:42.608Z,15.60
2022-10-11T09:57:22.016Z,12.73
2022-10-11T10:00:02.829Z,16.38
2022-10-11T10:02:44.969Z,13.70
2022-10-11T10:05:19.333Z,13.05
2022-10-11T10:08:04.243Z,14.15
2022-10-11T10:10:38.606Z,13.25
2022-10-11T10:13:22.779Z,11.60
2022-10-11T10:15:53.555Z,17.63
2022-10-11T10:18:25.257Z,12.85
2022-10-11T10:20:54.921Z,12.77
2022-10-11T10:23:25.649Z,16.63
2022-10-11T10:26:09.807Z,14.18
2022-10-11T10:28:39.413Z,17.70
2022-10-11T10:31:22.383Z,13.85
2022-10-11T10:33:53.398Z,19.90
2022-10-11T10:36:25.303Z,10.88
2022-10-11T10:39:01.040Z,10.75
2022-10-11T10:41:29.693Z,16.48
2022-10-11T10:44:01.199Z,12.05
2022-10-11T10:46:42.885Z,15.18
2022-10-11T10:52:29.740Z,12.63
2022-10-11T10:55:05.343Z,17.20
2022-10-11T10:57:41.929Z,8.38
2022-10-11T11:00:19.153Z,7.75
2022-10-11T11:02:54.754Z,10.15
2022-10-11T11:05:33.841Z,17.40
2022-10-11T11:08:13.215Z,12.35
2022-10-11T11:10:52.437Z,8.90
2022-10-11T11:13:29.645Z,13.43
2022-10-11T11:16:07.236Z,13.07
2022-10-11T11:18:43.455Z,10.00
2022-10-11T11:21:39.100Z,10.90
2022-10-11T11:24:18.075Z,18.38
2022-10-11T11:26:52.954Z,13.63
2022-10-11T11:29:41.139Z,15.65
2022-10-11T11:32:29.531Z,7.35
2022-10-11T11:35:02.249Z,12.30
2022-10-11T11:37:35.380Z,10.23
2022-10-11T11:40:15.420Z,9.95
2022-10-11T11:42:47.284Z,8.23
2022-10-11T11:45:20.467Z,17.60
2022-10-11T11:47:55.959Z,7.90
2022-10-11T11:50:28.552Z,14.20
2022-10-11T11:53:04.646Z,8.88
2022-10-11T11:55:39.890Z,12.35
2022-10-11T11:58:18.584Z,12.77
2022-10-11T12:00:57.741Z,10.38
2022-10-11T12:03:37.987Z,9.23
2022-10-11T12:06:29.562Z,12.25
2022-10-11T12:09:04.165Z,11.35
2022-10-11T12:11:43.144Z,13.35
2022-10-11T12:14:27.521Z,10.93
2022-10-11T12:17:19.515Z,6.35
2022-10-11T12:20:14.460Z,12.73
2022-10-11T12:22:55.482Z,12.38
2022-10-11T12:25:44.931Z,10.82
2022-10-11T12:29:01.622Z,10.00
2022-10-11T12:31:31.541Z,9.18
2022-10-11T12:34:21.811Z,11.10
2022-10-11T12:36:51.932Z,7.72
2022-10-11T12:39:52.789Z,9.65
2022-10-11T12:42:28.109Z,9.32
2022-10-11T12:45:32.192Z,10.32
2022-10-11T12:48:38.512Z,9.75
2022-10-11T12:51:36.654Z,9.63
2022-10-11T12:54:36.963Z,10.93
2022-10-11T12:57:28.455Z,5.35
2022-10-11T13:00:08.211Z,14.80
2022-10-11T13:02:42.595Z,15.18
2022-10-11T13:05:23.530Z,12.40
2022-10-11T13:07:52.866Z,11.45
2022-10-11T13:10:26.090Z,9.93
2022-10-11T13:12:55.172Z,6.43
2022-10-11T13:15:24.365Z,8.70
2022-10-11T13:17:54.172Z,10.15
2022-10-11T13:20:25.641Z,8.80
2022-10-11T13:22:55.582Z,7.93
2022-10-11T13:25:27.745Z,8.77
2022-10-11T13:27:59.377Z,11.48
2022-10-11T13:30:30.637Z,9.63
2022-10-11T13:32:59.714Z,5.45
2022-10-11T13:35:32.630Z,7.97
2022-10-11T13:38:00.956Z,5.90
2022-10-11T13:40:31.224Z,9.10
2022-10-11T13:42:59.740Z,9.55
2022-10-11T13:45:30.524Z,6.90
2022-10-11T13:47:58.687Z,8.85
2022-10-11T13:50:31.870Z,10.57
2022-10-11T13:53:02.245Z,8.65
2022-10-11T13:55:34.650Z,7.65
2022-10-11T14:00:35.870Z,7.07
2022-10-11T14:03:06.852Z,12.53
2022-10-11T14:05:41.186Z,5.60
2022-10-11T14:08:22.885Z,11.13
2022-10-11T14:10:57.187Z,9.07
2022-10-11T14:13:31.678Z,8.25
2022-10-11T14:16:02.870Z,6.95
2022-10-11T14:18:41.324Z,4.05
2022-10-11T14:21:25.538Z,6.70
2022-10-11T14:23:54.851Z,6.68
2022-10-11T14:26:25.282Z,7.95
2022-10-11T14:28:58.982Z,7.30
2022-10-11T14:31:31.001Z,7.70
2022-10-11T14:33:59.682Z,8.80
2022-10-11T14:36:27.878Z,6.95
2022-10-11T14:38:55.764Z,6.82
2022-10-11T14:41:25.193Z,8.60
2022-10-11T14:43:56.283Z,8.50
2022-10-11T14:46:26.218Z,6.28
2022-10-11T14:48:56.019Z,6.88
2022-10-11T14:51:28.620Z,6.43
2022-10-11T14:53:56.610Z,7.28
2022-10-11T14:56:25.750Z,11.18
2022-10-11T14:58:53.559Z,8.00
2022-10-11T15:01:21.515Z,9.65
2022-10-11T15:03:49.356Z,8.43
2022-10-11T15:06:20.455Z,6.32
2022-10-11T15:08:48.799Z,9.13
2022-10-11T15:11:17.921Z,5.82
2022-10-11T15:13:47.674Z,5.82
2022-10-11T15:16:42.264Z,7.10
2022-10-11T15:19:14.956Z,14.73
2022-10-11T15:21:42.959Z,6.20
2022-10-11T15:24:10.786Z,7.68
2022-10-11T15:26:38.634Z,8.20
2022-10-11T15:29:11.212Z,9.73
2022-10-11T15:31:39.379Z,11.80
2022-10-11T15:34:07.533Z,12.35
2022-10-11T15:36:35.396Z,14.27
2022-10-11T15:39:03.275Z,11.48
2022-10-11T15:41:31.151Z,12.23
2022-10-11T15:43:58.932Z,7.00
2022-10-11T15:46:28.200Z,12.82
2022-10-11T15:48:55.992Z,20.33
2022-10-11T15:51:23.965Z,32.33
2022-10-11T15:53:51.763Z,13.00
2022-10-11T15:56:19.719Z,19.50
2022-10-11T15:58:48.091Z,10.45
2022-10-11T16:01:18.660Z,13.35
2022-10-11T16:03:49.816Z,12.10
2022-10-11T16:06:17.701Z,14.23
2022-10-11T16:08:45.670Z,12.73
2022-10-11T16:11:13.800Z,16.80
2022-10-11T16:13:41.843Z,7.63
2022-10-11T16:16:10.928Z,8.73
2022-10-11T16:18:38.958Z,10.18
2022-10-11T16:21:10.680Z,11.88
2022-10-11T16:23:39.243Z,11.33
2022-10-11T16:26:09.402Z,10.70
2022-10-11T16:28:38.342Z,9.43
2022-10-11T16:31:09.898Z,6.32
2022-10-11T16:33:48.016Z,5.60
2022-10-11T16:36:40.516Z,9.63
2022-10-11T16:39:11.991Z,12.27
2022-10-11T16:41:40.082Z,8.50
2022-10-11T16:44:08.501Z,8.40
2022-10-11T16:46:36.332Z,8.88
2022-10-11T16:49:05.034Z,6.25
2022-10-11T16:51:34.594Z,12.75
2022-10-11T16:54:02.561Z,10.45
2022-10-11T16:56:30.341Z,15.48
2022-10-11T16:58:58.167Z,21.15
2022-10-11T17:01:26.790Z,11.38
2022-10-11T17:03:55.651Z,11.43
2022-10-11T17:06:23.961Z,16.15
2022-10-11T17:08:53.464Z,11.98
2022-10-11T17:11:22.624Z,11.55
2022-10-11T17:13:53.219Z,22.60
2022-10-11T17:16:21.978Z,24.00
2022-10-11T17:18:50.106Z,30.90
2022-10-11T17:21:20.102Z,18.08
2022-10-11T17:23:49.134Z,16.35
2022-10-11T17:26:20.332Z,54.83
2022-10-11T17:28:48.758Z,46.95
2022-10-11T17:31:16.755Z,33.00
2022-10-11T17:33:44.697Z,27.67
2022-10-11T17:36:23.744Z,30.08
2022-10-11T17:38:52.760Z,33.90
2022-10-11T17:41:22.168Z,29.30
2022-10-11T17:43:49.909Z,26.45
2022-10-11T17:46:18.821Z,26.98
2022-10-11T17:48:46.700Z,17.30
2022-10-11T17:51:17.128Z,15.20
2022-10-11T17:53:45.323Z,19.70
2022-10-11T17:56:15.492Z,17.15
2022-10-11T17:58:45.217Z,19.13
2022-10-11T18:01:15.646Z,12.40
2022-10-11T18:03:44.386Z,16.02
2022-10-11T18:06:14.944Z,8.30
2022-10-11T18:08:43.176Z,19.83
2022-10-11T18:11:12.846Z,13.90
2022-10-11T18:13:43.195Z,10.13
2022-10-11T18:16:13.570Z,10.13
2022-10-11T18:18:43.764Z,11.60
2022-10-11T18:21:12.157Z,11.90
2022-10-11T18:23:40.276Z,14.63
2022-10-11T18:26:13.097Z,14.95
2022-10-11T18:28:41.798Z,10.48
2022-10-11T18:31:14.142Z,11.90
2022-10-11T18:36:13.393Z,15.20
2022-10-11T18:38:46.572Z,14.38
2022-10-11T18:41:16.649Z,15.65
2022-10-11T18:43:50.865Z,12.73
2022-10-11T18:46:21.670Z,12.70
2022-10-11T18:48:54.541Z,14.80
2022-10-11T18:51:23.965Z,12.18
2022-10-11T18:53:53.006Z,9.70
2022-10-11T18:56:24.302Z,9.27
2022-10-11T18:58:54.664Z,16.27
2022-10-11T19:01:25.932Z,12.65
2022-10-11T19:03:56.533Z,11.60
2022-10-11T19:06:27.358Z,13.63
2022-10-11T19:08:57.449Z,11.77
2022-10-11T19:11:25.578Z,15.90
2022-10-11T19:13:57.364Z,17.13
2022-10-11T19:16:29.411Z,11.00
2022-10-11T19:18:58.483Z,10.30
2022-10-11T19:21:26.601Z,17.63
2022-10-11T19:23:56.626Z,24.10
2022-10-11T19:26:28.879Z,13.32
2022-10-11T19:28:59.069Z,18.30
2022-10-11T19:31:29.352Z,13.45
2022-10-11T19:33:58.149Z,17.48
2022-10-11T19:36:26.652Z,27.80
2022-10-11T19:38:56.689Z,35.63
2022-10-11T19:41:26.376Z,57.58
2022-10-11T19:43:55.050Z,78.80
2022-10-11T19:46:44.503Z,49.83
2022-10-11T19:49:15.753Z,35.75
2022-10-11T19:51:43.884Z,32.13
2022-10-11T19:54:14.681Z,33.20
2022-10-11T19:56:43.640Z,29.50
2022-10-11T19:59:12.902Z,37.10
2022-10-11T20:01:41.151Z,33.95
2022-10-11T20:04:27.538Z,31.45
2022-10-11T20:07:04.839Z,26.42
2022-10-11T20:09:32.701Z,20.33
2022-10-11T20:12:00.603Z,22.77
2022-10-11T20:14:28.386Z,16.02
2022-10-11T20:16:56.236Z,16.75
2022-10-11T20:19:30.372Z,12.02
2022-10-11T20:21:58.845Z,10.68
2022-10-11T20:24:32.530Z,9.30
2022-10-11T20:27:01.489Z,13.63
2022-10-11T20:29:29.364Z,11.63
2022-10-11T20:31:58.851Z,13.68
2022-10-11T20:34:27.581Z,11.25
2022-10-11T20:36:55.448Z,12.23
2022-10-11T20:39:23.620Z,8.43
2022-10-11T20:41:52.825Z,10.07
2022-10-11T20:44:20.634Z,10.35
2022-10-11T20:46:48.506Z,9.50
2022-10-11T20:49:16.407Z,12.60
2022-10-11T20:51:44.364Z,11.65
2022-10-11T20:54:12.551Z,9.45
2022-10-11T20:56:40.668Z,12.70
2022-10-11T20:59:11.408Z,10.40
2022-10-11T21:01:41.326Z,9.55
2022-10-11T21:04:17.319Z,8.88
2022-10-11T21:06:45.276Z,12.32
2022-10-11T21:09:16.416Z,13.52
2022-10-11T21:11:45.365Z,10.47
2022-10-11T21:14:14.623Z,11.32
2022-10-11T21:16:42.554Z,10.77
2022-10-11T21:19:13.825Z,12.38
2022-10-11T21:21:41.977Z,11.88
2022-10-11T21:24:10.055Z,8.20
2022-10-11T21:26:38.051Z,12.63
2022-10-11T21:29:05.876Z,19.80
2022-10-11T21:32:03.859Z,9.73
2022-10-11T21:34:31.850Z,17.33
2022-10-11T21:37:00.549Z,11.30
2022-10-11T21:39:28.348Z,13.23
2022-10-11T21:41:56.256Z,13.13
2022-10-11T21:44:24.125Z,9.55
2022-10-11T21:47:06.604Z,11.55
2022-10-11T21:49:37.510Z,8.90
2022-10-11T21:52:05.877Z,11.10
2022-10-11T21:54:33.658Z,9.75
2022-10-11T21:57:01.761Z,11.13
2022-10-11T21:59:29.603Z,9.77
2022-10-11T22:02:01.674Z,9.57
2022-10-11T22:06:37.104Z,8.93
2022-10-11T22:09:05.748Z,8.60
2022-10-11T22:11:33.864Z,12.43
2022-10-11T22:14:02.091Z,15.43
2022-10-11T22:16:29.855Z,7.28
2022-10-11T22:18:57.723Z,6.78
2022-10-11T22:21:25.553Z,8.93
2022-10-11T22:23:55.983Z,8.95
2022-10-11T22:26:25.897Z,9.93
2022-10-11T22:28:54.189Z,9.13
2022-10-11T22:31:22.649Z,8.30
2022-10-11T22:33:53.828Z,9.57
2022-10-11T22:36:24.157Z,10.98
2022-10-11T22:38:54.669Z,10.63
2022-10-11T22:41:22.630Z,12.00
2022-10-11T22:43:50.775Z,20.17
2022-10-11T22:46:18.901Z,10.13
2022-10-11T22:48:46.790Z,9.50
2022-10-11T22:51:14.673Z,10.50
2022-10-11T22:53:42.757Z,10.77
2022-10-11T22:56:12.035Z,10.00
2022-10-11T22:58:39.871Z,11.57
2022-10-11T23:01:09.506Z,13.57
2022-10-11T23:03:37.778Z,10.80
2022-10-11T23:06:05.896Z,8.55
2022-10-11T23:08:33.732Z,8.65
2022-10-11T23:11:04.386Z,9.90
2022-10-11T23:13:33.864Z,8.52
2022-10-11T23:16:06.995Z,7.78
2022-10-11T23:18:35.117Z,11.30
2022-10-11T23:21:03.127Z,7.10
2022-10-11T23:23:31.175Z,9.40
2022-10-11T23:26:04.051Z,9.43
2022-10-11T23:28:33.270Z,8.88
2022-10-11T23:31:01.420Z,11.57
2022-10-11T23:33:29.862Z,17.58
2022-10-11T23:35:58.301Z,7.75
2022-10-11T23:38:26.071Z,10.18
2022-10-11T23:40:53.871Z,10.50
2022-10-11T23:43:21.724Z,11.40
2022-10-11T23:45:51.219Z,13.07
2022-10-11T23:48:18.993Z,11.00
2022-10-11T23:50:46.992Z,15.88
2022-10-11T23:53:14.886Z,13.57
2022-10-11T23:55:43.383Z,14.57
2022-10-11T23:58:11.197Z,11.35
